createdAt,value
2018-09-21T00:00:08.505Z,19.70
2018-09-21T00:02:37.925Z,19.60
2018-09-21T00:05:07.396Z,19.60
2018-09-21T00:07:36.651Z,19.50
2018-09-21T00:10:10.093Z,19.60
2018-09-21T00:12:39.157Z,19.60
2018-09-21T00:15:08.218Z,19.60
2018-09-21T00:17:37.314Z,19.60
2018-09-21T00:20:13.005Z,19.50
2018-09-21T00:22:42.421Z,19.50
2018-09-21T00:25:11.612Z,19.50
2018-09-21T00:27:40.852Z,19.50
2018-09-21T00:30:10.057Z,19.40
2018-09-21T00:32:39.033Z,19.50
2018-09-21T00:35:08.208Z,19.40
2018-09-21T00:37:37.710Z,19.40
2018-09-21T00:40:07.036Z,19.30
2018-09-21T00:42:36.308Z,19.30
2018-09-21T00:45:05.641Z,19.30
2018-09-21T00:47:34.857Z,19.30
2018-09-21T00:50:05.239Z,19.30
2018-09-21T00:52:34.442Z,19.30
2018-09-21T00:55:05.557Z,19.30
2018-09-21T00:57:34.838Z,19.30
2018-09-21T01:00:04.106Z,19.30
2018-09-21T01:02:33.128Z,19.30
2018-09-21T01:05:02.381Z,19.20
2018-09-21T01:07:31.317Z,19.30
2018-09-21T01:10:00.532Z,19.20
2018-09-21T01:12:30.073Z,19.20
2018-09-21T01:14:59.499Z,19.20
2018-09-21T01:17:28.684Z,19.20
2018-09-21T01:19:57.897Z,19.10
2018-09-21T01:22:27.035Z,19.10
2018-09-21T01:24:55.943Z,19.20
2018-09-21T01:27:25.151Z,19.10
2018-09-21T01:29:54.325Z,19.10
2018-09-21T01:32:23.509Z,19.10
2018-09-21T01:34:52.662Z,19.10
2018-09-21T01:37:22.909Z,19.20
2018-09-21T01:39:52.111Z,19.20
2018-09-21T01:42:21.473Z,19.20
2018-09-21T01:44:50.818Z,19.20
2018-09-21T01:47:20.107Z,19.20
2018-09-21T01:49:49.306Z,19.20
2018-09-21T01:52:18.288Z,19.30
2018-09-21T01:54:47.526Z,19.30
2018-09-21T01:57:17.265Z,19.40
2018-09-21T01:59:46.240Z,19.50
2018-09-21T02:02:15.259Z,19.50
2018-09-21T02:04:45.709Z,19.50
2018-09-21T02:07:14.924Z,19.50
2018-09-21T02:09:44.204Z,19.60
2018-09-21T02:12:13.292Z,19.60
2018-09-21T02:14:42.475Z,19.60
2018-09-21T02:17:11.615Z,19.60
2018-09-21T02:19:40.804Z,19.70
2018-09-21T02:22:09.990Z,19.70
2018-09-21T02:24:39.198Z,19.70
2018-09-21T02:27:09.361Z,19.70
2018-09-21T02:29:38.353Z,19.70
2018-09-21T02:32:07.271Z,19.70
2018-09-21T02:34:36.442Z,19.70
2018-09-21T02:37:05.583Z,19.70
2018-09-21T02:39:36.117Z,19.70
2018-09-21T02:42:05.039Z,19.70
2018-09-21T02:44:35.259Z,19.70
2018-09-21T02:47:04.520Z,19.70
2018-09-21T02:49:33.745Z,19.70
2018-09-21T02:52:02.938Z,19.60
2018-09-21T02:54:36.489Z,19.60
2018-09-21T02:57:05.995Z,19.60
2018-09-21T02:59:35.178Z,19.60
2018-09-21T03:02:04.147Z,19.60
2018-09-21T03:04:33.109Z,19.60
2018-09-21T03:07:02.313Z,19.60
2018-09-21T03:09:31.477Z,19.70
2018-09-21T03:12:00.655Z,19.70
2018-09-21T03:14:29.821Z,19.70
2018-09-21T03:16:58.976Z,19.70
2018-09-21T03:19:28.141Z,19.70
2018-09-21T03:21:57.372Z,19.70
2018-09-21T03:24:27.838Z,19.80
2018-09-21T03:26:56.784Z,19.90
2018-09-21T03:29:25.947Z,19.90
2018-09-21T03:31:55.082Z,19.90
2018-09-21T03:34:24.292Z,19.90
2018-09-21T03:36:53.507Z,20.00
2018-09-21T03:39:22.586Z,20.10
2018-09-21T03:41:51.693Z,20.10
2018-09-21T03:44:21.037Z,20.10
2018-09-21T03:46:50.168Z,20.20
2018-09-21T03:49:19.364Z,20.10
2018-09-21T03:51:48.398Z,20.10
2018-09-21T03:54:17.603Z,20.10
2018-09-21T03:56:46.571Z,20.10
2018-09-21T03:59:15.545Z,20.10
2018-09-21T04:01:44.824Z,20.10
2018-09-21T04:04:14.114Z,20.10
2018-09-21T04:06:43.475Z,20.10
2018-09-21T04:09:12.396Z,20.10
2018-09-21T04:11:41.611Z,20.00
2018-09-21T04:14:10.603Z,20.10
2018-09-21T04:16:39.928Z,20.00
2018-09-21T04:19:08.976Z,20.10
2018-09-21T04:21:38.293Z,20.00
2018-09-21T04:24:07.697Z,20.00
2018-09-21T04:26:36.941Z,20.00
2018-09-21T04:29:06.334Z,19.90
2018-09-21T04:31:35.532Z,19.90
2018-09-21T04:34:04.435Z,20.00
2018-09-21T04:36:33.636Z,19.90
2018-09-21T04:39:04.766Z,19.90
2018-09-21T04:41:33.703Z,19.90
2018-09-21T04:44:02.701Z,19.90
2018-09-21T04:49:11.906Z,19.90
2018-09-21T04:51:41.295Z,19.90
2018-09-21T04:54:10.255Z,20.00
2018-09-21T04:56:39.542Z,19.90
2018-09-21T04:59:08.765Z,19.90
2018-09-21T05:01:37.960Z,19.90
2018-09-21T05:04:06.887Z,19.90
2018-09-21T05:06:36.180Z,19.90
2018-09-21T05:09:07.735Z,19.90
2018-09-21T05:11:36.935Z,19.90
2018-09-21T05:14:10.404Z,19.90
2018-09-21T05:16:39.822Z,20.00
2018-09-21T05:19:09.016Z,20.00
2018-09-21T05:21:38.307Z,20.00
2018-09-21T05:24:07.855Z,20.00
2018-09-21T05:26:37.076Z,20.10
2018-09-21T05:29:06.780Z,20.10
2018-09-21T05:31:36.593Z,20.10
2018-09-21T05:34:05.891Z,20.10
2018-09-21T05:36:34.814Z,20.30
2018-09-21T05:39:04.048Z,20.30
2018-09-21T05:41:32.995Z,20.40
2018-09-21T05:44:01.966Z,20.50
2018-09-21T05:46:31.510Z,20.50
2018-09-21T05:49:00.529Z,20.60
2018-09-21T05:51:29.694Z,20.70
2018-09-21T05:53:59.485Z,20.90
2018-09-21T05:56:28.768Z,20.90
2018-09-21T05:58:57.911Z,20.90
2018-09-21T06:01:27.817Z,21.00
2018-09-21T06:03:56.736Z,21.10
2018-09-21T06:06:25.688Z,21.20
2018-09-21T06:08:54.910Z,21.20
2018-09-21T06:11:23.876Z,21.30
2018-09-21T06:13:53.088Z,21.30
2018-09-21T06:16:22.472Z,21.40
2018-09-21T06:18:51.660Z,21.40
2018-09-21T06:21:20.890Z,21.50
2018-09-21T06:23:50.120Z,21.60
2018-09-21T06:26:19.365Z,21.70
2018-09-21T06:28:48.317Z,21.70
2018-09-21T06:31:17.463Z,21.70
2018-09-21T06:33:46.400Z,21.80
2018-09-21T06:36:15.617Z,21.80
2018-09-21T06:38:44.807Z,21.90
2018-09-21T06:41:13.719Z,22.00
2018-09-21T06:43:42.901Z,22.10
2018-09-21T06:46:12.749Z,22.10
2018-09-21T06:48:42.105Z,22.10
2018-09-21T06:51:11.285Z,22.20
2018-09-21T06:53:40.566Z,22.20
2018-09-21T06:56:09.720Z,22.20
2018-09-21T06:58:38.929Z,22.30
2018-09-21T07:01:08.108Z,22.20
2018-09-21T07:03:37.340Z,22.30
2018-09-21T07:06:06.348Z,22.30
2018-09-21T07:08:35.316Z,22.40
2018-09-21T07:11:04.578Z,22.30
2018-09-21T07:13:33.727Z,22.40
2018-09-21T07:16:02.913Z,22.50
2018-09-21T07:18:32.083Z,22.50
2018-09-21T07:21:01.458Z,22.50
2018-09-21T07:23:30.399Z,22.60
2018-09-21T07:25:59.349Z,22.60
2018-09-21T07:28:28.496Z,22.60
2018-09-21T07:30:57.698Z,22.60
2018-09-21T07:33:26.625Z,22.70
2018-09-21T07:35:55.826Z,22.70
2018-09-21T07:38:25.022Z,22.70
2018-09-21T07:40:54.180Z,22.80
2018-09-21T07:43:23.374Z,22.90
2018-09-21T07:45:52.585Z,23.00
2018-09-21T07:48:21.755Z,23.10
2018-09-21T07:50:51.003Z,23.20
2018-09-21T07:53:20.479Z,23.20
2018-09-21T07:55:49.828Z,23.30
2018-09-21T07:58:19.402Z,23.30
2018-09-21T08:00:48.705Z,23.40
2018-09-21T08:03:17.952Z,23.60
2018-09-21T08:05:46.948Z,23.70
2018-09-21T08:08:16.652Z,23.90
2018-09-21T08:10:45.649Z,24.00
2018-09-21T08:13:15.906Z,24.10
2018-09-21T08:15:45.177Z,24.20
2018-09-21T08:18:14.473Z,24.20
2018-09-21T08:20:43.994Z,24.20
2018-09-21T08:23:13.180Z,24.30
2018-09-21T08:25:42.181Z,24.10
2018-09-21T08:28:11.427Z,24.10
2018-09-21T08:30:41.941Z,24.20
2018-09-21T08:33:11.184Z,24.20
2018-09-21T08:35:40.137Z,24.20
2018-09-21T08:38:09.086Z,24.30
2018-09-21T08:40:38.054Z,24.40
2018-09-21T08:43:07.048Z,24.50
2018-09-21T08:45:36.298Z,24.60
2018-09-21T08:48:05.439Z,24.60
2018-09-21T08:50:34.403Z,24.60
2018-09-21T08:53:03.588Z,24.60
2018-09-21T08:55:32.796Z,24.70
2018-09-21T08:58:03.842Z,24.80
2018-09-21T09:00:33.046Z,24.80
2018-09-21T09:03:02.338Z,24.90
2018-09-21T09:05:31.167Z,25.00
2018-09-21T09:08:00.349Z,25.00
2018-09-21T09:10:29.259Z,25.20
2018-09-21T09:12:58.683Z,25.10
2018-09-21T09:15:27.917Z,25.30
2018-09-21T09:17:57.180Z,25.40
2018-09-21T09:20:26.128Z,25.60
2018-09-21T09:22:55.345Z,25.70
2018-09-21T09:25:24.636Z,25.80
2018-09-21T09:27:53.815Z,26.00
2018-09-21T09:30:24.709Z,26.10
2018-09-21T09:32:53.741Z,26.20
2018-09-21T09:35:22.908Z,26.20
2018-09-21T09:37:52.265Z,26.20
2018-09-21T09:40:21.208Z,26.30
2018-09-21T09:42:50.632Z,26.20
2018-09-21T09:45:19.993Z,26.40
2018-09-21T09:47:49.249Z,26.30
2018-09-21T09:50:18.490Z,26.40
2018-09-21T09:52:47.716Z,26.40
2018-09-21T09:55:17.089Z,26.30
2018-09-21T09:57:47.057Z,26.20
2018-09-21T10:00:20.364Z,26.30
2018-09-21T10:02:49.619Z,26.30
2018-09-21T10:05:18.862Z,26.20
2018-09-21T10:07:48.250Z,26.20
2018-09-21T10:10:17.535Z,26.30
2018-09-21T10:12:46.825Z,26.30
2018-09-21T10:15:16.025Z,26.30
2018-09-21T10:17:46.179Z,26.50
2018-09-21T10:20:16.382Z,26.60
2018-09-21T10:22:46.960Z,26.80
2018-09-21T10:25:16.225Z,26.90
2018-09-21T10:27:45.377Z,27.10
2018-09-21T10:30:14.349Z,27.30
2018-09-21T10:32:43.459Z,27.30
2018-09-21T10:35:12.421Z,27.30
2018-09-21T10:37:41.697Z,27.40
2018-09-21T10:40:10.828Z,27.40
2018-09-21T10:42:40.078Z,27.40
2018-09-21T10:45:08.972Z,27.50
2018-09-21T10:47:38.226Z,27.40
2018-09-21T10:50:07.317Z,27.50
2018-09-21T10:52:36.522Z,27.40
2018-09-21T10:55:05.961Z,27.40
2018-09-21T10:57:35.260Z,27.40
2018-09-21T11:00:05.440Z,27.50
2018-09-21T11:02:35.075Z,27.60
2018-09-21T11:05:05.050Z,27.70
2018-09-21T11:07:34.229Z,27.80
2018-09-21T11:10:03.606Z,27.60
2018-09-21T11:12:32.928Z,27.60
2018-09-21T11:15:02.191Z,27.60
2018-09-21T11:17:31.418Z,27.60
2018-09-21T11:20:00.878Z,27.70
2018-09-21T11:22:30.157Z,27.70
2018-09-21T11:24:59.487Z,27.70
2018-09-21T11:27:28.768Z,27.90
2018-09-21T11:29:57.775Z,27.90
2018-09-21T11:32:26.736Z,28.00
2018-09-21T11:34:55.903Z,28.00
2018-09-21T11:37:24.972Z,27.90
2018-09-21T11:39:53.954Z,27.90
2018-09-21T11:42:22.891Z,27.90
2018-09-21T11:44:52.141Z,27.90
2018-09-21T11:47:21.315Z,27.80
2018-09-21T11:49:50.468Z,27.70
2018-09-21T11:52:19.680Z,27.40
2018-09-21T11:54:48.873Z,27.60
2018-09-21T11:57:18.080Z,27.60
2018-09-21T11:59:47.024Z,27.50
2018-09-21T12:02:16.370Z,27.40
2018-09-21T12:04:45.520Z,27.60
2018-09-21T12:07:14.735Z,27.40
2018-09-21T12:09:43.975Z,27.40
2018-09-21T12:12:12.916Z,27.20
2018-09-21T12:14:41.892Z,27.20
2018-09-21T12:17:11.188Z,27.10
2018-09-21T12:19:40.093Z,27.10
2018-09-21T12:22:09.356Z,27.00
2018-09-21T12:24:38.632Z,26.80
2018-09-21T12:27:07.847Z,26.70
2018-09-21T12:29:36.836Z,26.70
2018-09-21T12:32:06.096Z,26.70
2018-09-21T12:34:35.116Z,26.70
2018-09-21T12:37:04.503Z,26.70
2018-09-21T12:39:33.787Z,26.60
2018-09-21T12:42:03.082Z,26.50
2018-09-21T12:44:32.383Z,26.60
2018-09-21T12:47:01.708Z,26.70
2018-09-21T12:49:31.872Z,26.80
2018-09-21T12:52:01.064Z,26.90
2018-09-21T12:54:30.299Z,26.90
2018-09-21T12:56:59.582Z,26.90
2018-09-21T12:59:28.538Z,27.00
2018-09-21T13:01:57.818Z,27.00
2018-09-21T13:04:26.841Z,27.10
2018-09-21T13:06:56.181Z,27.00
2018-09-21T13:09:25.280Z,27.10
2018-09-21T13:11:54.501Z,27.10
2018-09-21T13:14:23.830Z,27.30
2018-09-21T13:16:53.336Z,27.20
2018-09-21T13:19:22.379Z,27.30
2018-09-21T13:21:51.658Z,27.30
2018-09-21T13:24:20.928Z,27.30
2018-09-21T13:26:50.079Z,27.30
2018-09-21T13:29:19.317Z,27.40
2018-09-21T13:31:48.484Z,27.50
2018-09-21T13:34:17.476Z,27.40
2018-09-21T13:36:46.551Z,27.40
2018-09-21T13:39:15.674Z,27.40
2018-09-21T13:41:44.901Z,27.40
2018-09-21T13:44:14.792Z,27.40
2018-09-21T13:46:44.147Z,27.20
2018-09-21T13:49:13.479Z,27.10
2018-09-21T13:51:42.880Z,27.10
2018-09-21T13:54:12.125Z,27.00
2018-09-21T13:56:41.333Z,27.00
2018-09-21T13:59:10.658Z,27.10
2018-09-21T14:01:40.097Z,27.00
2018-09-21T14:04:09.348Z,27.00
2018-09-21T14:06:38.316Z,27.10
2018-09-21T14:09:08.341Z,27.00
2018-09-21T14:11:37.348Z,26.90
2018-09-21T14:14:06.679Z,26.90
2018-09-21T14:16:35.833Z,26.70
2018-09-21T14:19:05.121Z,26.60
2018-09-21T14:21:34.620Z,26.70
2018-09-21T14:24:03.619Z,26.50
2018-09-21T14:26:32.826Z,26.40
2018-09-21T14:29:02.079Z,26.30
2018-09-21T14:31:31.031Z,26.40
2018-09-21T14:34:00.285Z,26.10
2018-09-21T14:36:29.242Z,26.10
2018-09-21T14:38:58.444Z,26.00
2018-09-21T14:41:27.360Z,26.00
2018-09-21T14:43:56.569Z,25.90
2018-09-21T14:46:25.753Z,25.90
2018-09-21T14:48:54.899Z,25.80
2018-09-21T14:51:24.101Z,25.80
2018-09-21T14:53:53.354Z,25.70
2018-09-21T14:56:22.578Z,25.70
2018-09-21T14:58:52.071Z,25.70
2018-09-21T15:01:21.360Z,25.60
2018-09-21T15:03:50.706Z,25.50
2018-09-21T15:06:20.963Z,25.00
2018-09-21T15:08:50.011Z,24.40
2018-09-21T15:11:18.995Z,24.20
2018-09-21T15:13:47.997Z,23.70
2018-09-21T15:16:16.918Z,23.40
2018-09-21T15:18:46.104Z,22.90
2018-09-21T15:21:15.341Z,22.10
2018-09-21T15:23:44.529Z,21.50
2018-09-21T15:26:13.763Z,21.00
2018-09-21T15:28:42.773Z,20.60
2018-09-21T15:31:11.935Z,20.30
2018-09-21T15:33:40.905Z,20.00
2018-09-21T15:36:10.145Z,19.60
2018-09-21T15:38:39.392Z,19.40
2018-09-21T15:41:08.334Z,19.30
2018-09-21T15:43:37.602Z,19.10
2018-09-21T15:46:06.804Z,18.80
2018-09-21T15:48:36.050Z,18.60
2018-09-21T15:51:05.221Z,18.60
2018-09-21T15:53:34.456Z,18.60
2018-09-21T15:56:03.804Z,18.60
2018-09-21T15:58:33.000Z,18.50
2018-09-21T16:01:02.185Z,18.40
2018-09-21T16:03:31.153Z,18.30
2018-09-21T16:06:00.110Z,18.30
2018-09-21T16:08:29.056Z,18.20
2018-09-21T16:10:58.301Z,18.20
2018-09-21T16:13:27.280Z,18.20
2018-09-21T16:15:56.411Z,18.00
2018-09-21T16:18:25.433Z,17.90
2018-09-21T16:20:54.465Z,17.90
2018-09-21T16:23:23.689Z,17.90
2018-09-21T16:25:52.841Z,17.80
2018-09-21T16:28:22.317Z,17.70
2018-09-21T16:30:51.574Z,17.60
2018-09-21T16:33:20.519Z,17.60
2018-09-21T16:35:49.848Z,17.60
2018-09-21T16:38:18.829Z,17.70
2018-09-21T16:40:47.988Z,17.70
2018-09-21T16:43:17.188Z,17.60
2018-09-21T16:45:46.344Z,17.60
2018-09-21T16:48:15.481Z,17.50
2018-09-21T16:50:44.756Z,17.50
2018-09-21T16:53:13.958Z,17.50
2018-09-21T16:55:42.880Z,17.50
2018-09-21T16:58:12.113Z,17.50
2018-09-21T17:00:41.052Z,17.40
2018-09-21T17:03:10.283Z,17.10
2018-09-21T17:05:39.503Z,17.10
2018-09-21T17:08:08.763Z,16.90
2018-09-21T17:10:37.977Z,16.70
2018-09-21T17:13:06.999Z,16.70
2018-09-21T17:15:36.189Z,16.40
2018-09-21T17:18:05.621Z,16.40
2018-09-21T17:20:34.774Z,16.30
2018-09-21T17:23:03.972Z,16.40
2018-09-21T17:25:33.430Z,16.30
2018-09-21T17:28:02.714Z,16.30
2018-09-21T17:30:31.772Z,16.30
2018-09-21T17:33:00.801Z,16.40
2018-09-21T17:35:30.873Z,16.20
2018-09-21T17:38:00.032Z,16.30
2018-09-21T17:40:28.993Z,16.30
2018-09-21T17:42:58.198Z,16.30
2018-09-21T17:45:27.482Z,16.20
2018-09-21T17:47:56.701Z,16.20
2018-09-21T17:50:25.625Z,16.10
2018-09-21T17:52:54.897Z,15.90
2018-09-21T17:55:30.541Z,15.90
2018-09-21T17:57:59.758Z,15.80
2018-09-21T18:00:28.939Z,15.80
2018-09-21T18:02:58.112Z,15.80
2018-09-21T18:05:27.984Z,15.80
2018-09-21T18:07:56.952Z,15.90
2018-09-21T18:10:26.209Z,15.90
2018-09-21T18:12:55.363Z,15.90
2018-09-21T18:15:24.575Z,15.90
2018-09-21T18:17:53.521Z,15.90
2018-09-21T18:20:22.831Z,15.90
2018-09-21T18:22:51.778Z,15.90
2018-09-21T18:25:20.709Z,15.90
2018-09-21T18:27:49.849Z,15.90
2018-09-21T18:30:18.792Z,16.00
2018-09-21T18:32:47.952Z,15.90
2018-09-21T18:35:16.903Z,16.00
2018-09-21T18:37:46.047Z,16.00
2018-09-21T18:40:15.051Z,16.00
2018-09-21T18:42:44.236Z,16.00
2018-09-21T18:45:13.468Z,16.00
2018-09-21T18:47:42.652Z,16.00
2018-09-21T18:50:11.889Z,16.00
2018-09-21T18:52:40.845Z,16.00
2018-09-21T18:55:10.028Z,16.00
2018-09-21T18:57:38.983Z,16.00
2018-09-21T19:00:08.505Z,16.00
2018-09-21T19:02:37.700Z,16.00
2018-09-21T19:05:06.625Z,16.10
2018-09-21T19:07:35.560Z,16.00
2018-09-21T19:10:04.714Z,15.90
2018-09-21T19:12:33.892Z,15.90
2018-09-21T19:15:03.120Z,15.90
2018-09-21T19:17:32.301Z,15.90
2018-09-21T19:20:01.483Z,15.90
2018-09-21T19:22:30.682Z,15.90
2018-09-21T19:24:59.832Z,15.90
2018-09-21T19:27:29.025Z,15.90
2018-09-21T19:29:58.210Z,15.90
2018-09-21T19:32:27.165Z,15.90
2018-09-21T19:34:56.316Z,15.80
2018-09-21T19:37:25.252Z,15.90
2018-09-21T19:39:54.397Z,15.80
2018-09-21T19:42:23.452Z,15.90
2018-09-21T19:44:52.598Z,15.80
2018-09-21T19:47:21.803Z,15.70
2018-09-21T19:49:50.939Z,15.70
2018-09-21T19:52:20.149Z,15.80
2018-09-21T19:54:49.410Z,15.70
2018-09-21T19:57:18.574Z,15.80
2018-09-21T19:59:47.513Z,15.90
2018-09-21T20:02:16.732Z,15.80
2018-09-21T20:04:45.907Z,15.80
2018-09-21T20:07:15.092Z,15.70
2018-09-21T20:09:44.293Z,15.70
2018-09-21T20:12:13.651Z,15.60
2018-09-21T20:14:42.607Z,15.60
2018-09-21T20:17:12.006Z,15.60
2018-09-21T20:19:41.233Z,15.60
2018-09-21T20:22:11.435Z,15.50
2018-09-21T20:24:40.326Z,15.60
2018-09-21T20:27:09.272Z,15.50
2018-09-21T20:29:38.186Z,15.50
2018-09-21T20:32:13.068Z,15.40
2018-09-21T20:34:42.029Z,15.50
2018-09-21T20:37:11.046Z,15.50
2018-09-21T20:39:40.066Z,15.50
2018-09-21T20:42:09.413Z,15.50
2018-09-21T20:44:38.405Z,15.50
2018-09-21T20:47:07.618Z,15.40
2018-09-21T20:49:36.803Z,15.30
2018-09-21T20:52:06.003Z,15.30
2018-09-21T20:54:41.911Z,15.30
2018-09-21T20:57:11.101Z,15.40
2018-09-21T20:59:40.030Z,15.30
2018-09-21T21:02:09.009Z,15.20
2018-09-21T21:04:38.191Z,15.10
2018-09-21T21:07:07.158Z,15.20
2018-09-21T21:09:36.381Z,15.20
2018-09-21T21:12:05.335Z,15.20
2018-09-21T21:14:34.493Z,15.20
2018-09-21T21:17:03.660Z,15.20
2018-09-21T21:19:32.908Z,15.20
2018-09-21T21:22:02.093Z,15.20
2018-09-21T21:24:31.306Z,15.10
2018-09-21T21:27:00.509Z,15.10
2018-09-21T21:29:29.481Z,15.10
2018-09-21T21:31:58.467Z,15.10
2018-09-21T21:34:27.720Z,15.00
2018-09-21T21:36:56.662Z,15.10
2018-09-21T21:39:25.863Z,15.00
2018-09-21T21:41:54.762Z,15.00
2018-09-21T21:44:23.928Z,15.00
2018-09-21T21:46:53.101Z,15.00
2018-09-21T21:49:22.007Z,15.00
2018-09-21T21:51:50.972Z,15.00
2018-09-21T21:54:20.163Z,14.90
2018-09-21T21:56:49.079Z,14.90
2018-09-21T21:59:18.285Z,14.90
2018-09-21T22:01:48.382Z,14.90
2018-09-21T22:04:18.408Z,14.90
2018-09-21T22:06:47.608Z,14.90
2018-09-21T22:09:16.568Z,14.90
2018-09-21T22:11:50.791Z,14.80
2018-09-21T22:14:19.754Z,14.80
2018-09-21T22:16:48.655Z,14.80
2018-09-21T22:19:17.817Z,14.70
2018-09-21T22:21:46.837Z,14.80
2018-09-21T22:24:15.988Z,14.70
2018-09-21T22:26:44.985Z,14.70
2018-09-21T22:29:14.120Z,14.60
2018-09-21T22:31:43.263Z,14.60
2018-09-21T22:34:12.465Z,14.60
2018-09-21T22:36:41.699Z,14.60
2018-09-21T22:39:11.072Z,14.60
2018-09-21T22:41:40.461Z,14.60
2018-09-21T22:44:09.407Z,14.60
2018-09-21T22:46:38.617Z,14.50
2018-09-21T22:49:11.180Z,14.40
2018-09-21T22:51:40.339Z,14.40
2018-09-21T22:54:09.560Z,14.40
2018-09-21T22:56:38.739Z,14.40
2018-09-21T22:59:07.979Z,14.40
2018-09-21T23:01:37.112Z,14.30
2018-09-21T23:04:06.437Z,14.30
2018-09-21T23:06:35.612Z,14.30
2018-09-21T23:09:06.992Z,14.30
2018-09-21T23:11:36.206Z,14.20
2018-09-21T23:14:05.152Z,14.30
2018-09-21T23:16:34.072Z,14.20
2018-09-21T23:19:02.980Z,14.20
2018-09-21T23:21:31.951Z,14.10
2018-09-21T23:24:01.280Z,14.10
2018-09-21T23:26:30.215Z,14.10
2018-09-21T23:28:59.650Z,14.10
2018-09-21T23:31:28.560Z,14.20
2018-09-21T23:33:57.542Z,14.10
2018-09-21T23:36:26.495Z,14.10
2018-09-21T23:38:55.738Z,14.10
2018-09-21T23:41:24.888Z,14.10
2018-09-21T23:43:54.055Z,14.10
2018-09-21T23:46:22.987Z,14.10
2018-09-21T23:48:52.195Z,14.10
2018-09-21T23:51:21.399Z,14.10
2018-09-21T23:53:50.580Z,14.10
2018-09-21T23:56:19.757Z,14.10
2018-09-21T23:58:48.937Z,14.00
